Time;durP1;ratioP1;P1;durP2;ratioP2;P2;SDS_P1;SDS_P2;PMS_P1;PMS_P2;Temp;Humidity;BMP_temperature;BMP_pressure;BME280_temperature;BME280_humidity;BME280_pressure;Samples;Min_cycle;Max_cycle;Signal;HPM_P1;HPM_P2
2022/06/20 00:01:06;;;;;;;;;6.25;5.50;;;;;16.84;63.37;99544.63;5117653;28;8819;-64
2022/06/20 00:03:34;;;;;;;;;7.00;7.00;;;;;16.84;63.59;99568.84;5116542;28;8962;-64
2022/06/20 00:06:01;;;;;;;;;7.00;7.00;;;;;16.84;63.24;99586.81;5117723;28;8838;-64
2022/06/20 00:08:30;;;;;;;;;3.00;1.00;;;;;16.84;63.25;99584.97;5117375;28;8836;-64
2022/06/20 00:10:57;;;;;;;;;7.50;5.00;;;;;16.86;63.50;99574.06;5112931;28;8822;-64
2022/06/20 00:13:25;;;;;;;;;7.50;6.25;;;;;16.91;63.00;99567.16;5096803;28;8948;-65
2022/06/20 00:15:53;;;;;;;;;6.00;5.50;;;;;16.95;62.93;99552.31;5096668;28;8814;-64
2022/06/20 00:18:22;;;;;;;;;6.00;6.00;;;;;16.97;63.17;99554.84;5097125;28;8837;-64
2022/06/20 00:20:49;;;;;;;;;6.75;6.25;;;;;17.00;63.43;99541.91;5096858;28;8853;-64
2022/06/20 00:23:17;;;;;;;;;5.75;5.00;;;;;17.03;62.77;99538.88;5097005;28;9645;-64
2022/06/20 00:25:45;;;;;;;;;9.00;7.50;;;;;17.02;63.22;99539.03;5096149;28;8822;-64
2022/06/20 00:28:12;;;;;;;;;8.50;6.50;;;;;17.02;62.99;99533.66;5099769;28;8828;-64
2022/06/20 00:30:40;;;;;;;;;9.25;9.00;;;;;16.99;63.03;99529.47;5116817;28;8858;-64
2022/06/20 00:33:08;;;;;;;;;7.50;7.50;;;;;17.00;63.35;99517.69;5116916;28;8947;-64
2022/06/20 00:35:36;;;;;;;;;7.00;6.50;;;;;17.02;63.48;99496.81;5116900;28;8838;-64
2022/06/20 00:38:04;;;;;;;;;9.00;8.00;;;;;17.03;63.31;99493.16;5116851;28;8838;-64
2022/06/20 00:40:32;;;;;;;;;6.75;5.50;;;;;16.98;63.15;99492.81;5117314;28;9527;-64
2022/06/20 00:42:59;;;;;;;;;9.25;9.00;;;;;16.95;63.92;99492.31;5116638;28;8890;-64
2022/06/20 00:45:27;;;;;;;;;7.75;6.50;;;;;16.91;63.44;99491.81;5117101;28;8828;-64
2022/06/20 00:47:55;;;;;;;;;9.50;8.50;;;;;16.90;63.81;99500.91;5116764;28;8828;-65
2022/06/20 00:50:23;;;;;;;;;9.75;9.00;;;;;16.88;63.54;99486.81;5116797;28;8828;-64
2022/06/20 00:52:51;;;;;;;;;11.00;10.00;;;;;16.88;63.48;99448.28;5116528;28;8820;-65
2022/06/20 00:55:18;;;;;;;;;12.25;9.00;;;;;16.86;64.31;99416.19;5116384;28;8852;-69
2022/06/20 00:57:46;;;;;;;;;11.25;9.50;;;;;16.83;64.29;99404.94;5116597;28;8966;-64
2022/06/20 01:00:14;;;;;;;;;9.00;7.50;;;;;16.80;63.82;99408.81;5096453;28;8840;-64
2022/06/20 01:02:42;;;;;;;;;9.00;7.50;;;;;16.76;64.23;99426.31;5095706;28;8834;-64
2022/06/20 01:05:10;;;;;;;;;9.50;8.50;;;;;16.73;63.99;99450.88;5096283;28;9581;-64
2022/06/20 01:07:38;;;;;;;;;7.00;7.00;;;;;16.71;64.19;99482.47;5096035;28;8838;-64
2022/06/20 01:10:06;;;;;;;;;7.00;7.00;;;;;16.71;64.50;99462.81;5095827;28;8845;-64
2022/06/20 01:12:34;;;;;;;;;6.00;5.00;;;;;16.70;64.54;99461.97;5095800;28;8838;-64
2022/06/20 01:15:02;;;;;;;;;4.25;3.50;;;;;16.67;64.07;99473.06;5095160;28;8863;-64
2022/06/20 01:17:29;;;;;;;;;12.75;8.00;;;;;16.65;64.55;99490.38;5096221;28;8850;-64
2022/06/20 01:19:58;;;;;;;;;8.00;8.00;;;;;16.63;64.69;99498.63;5095895;28;8818;-64
2022/06/20 01:22:26;;;;;;;;;9.00;7.50;;;;;16.64;64.22;99494.91;5095837;28;8821;-64
2022/06/20 01:24:53;;;;;;;;;4.00;3.50;;;;;16.67;64.00;99508.03;5095563;28;8842;-63
2022/06/20 01:27:21;;;;;;;;;6.00;5.00;;;;;16.70;64.45;99514.94;5095388;28;8830;-64
2022/06/20 01:29:49;;;;;;;;;6.50;6.00;;;;;16.70;64.46;99514.94;5096281;28;8854;-64
2022/06/20 01:32:17;;;;;;;;;7.00;6.50;;;;;16.69;63.82;99527.50;5095877;28;8938;-64
2022/06/20 01:34:46;;;;;;;;;9.00;7.50;;;;;16.67;64.43;99537.63;5095571;28;8822;-64
2022/06/20 01:37:26;;;;;;;;;9.00;7.00;;;;;16.68;64.01;99536.59;5095904;28;8846;-64
2022/06/20 01:39:54;;;;;;;;;4.00;4.00;;;;;16.69;64.30;99534.72;5095666;28;8845;-64
2022/06/20 01:42:21;;;;;;;;;6.75;6.75;;;;;16.68;63.99;99554.56;5095506;28;9689;-64
2022/06/20 01:44:48;;;;;;;;;8.00;7.00;;;;;16.62;64.60;99558.78;5095748;28;8862;-65
2022/06/20 01:47:16;;;;;;;;;7.00;7.00;;;;;16.56;64.57;99564.00;5096170;28;8854;-65
2022/06/20 01:49:46;;;;;;;;;4.50;4.50;;;;;16.50;64.18;99568.19;5095677;28;8834;-65
2022/06/20 01:52:13;;;;;;;;;8.00;7.00;;;;;16.49;64.45;99563.00;5095555;28;8846;-64
2022/06/20 01:54:41;;;;;;;;;6.50;6.50;;;;;16.49;64.59;99593.41;5095678;28;8840;-64
2022/06/20 01:57:09;;;;;;;;;9.50;7.00;;;;;16.43;64.79;99669.34;5095050;28;9523;-65
2022/06/20 01:59:37;;;;;;;;;6.00;6.00;;;;;16.31;64.96;99702.03;5107030;28;8815;-64
2022/06/20 02:02:05;;;;;;;;;8.00;7.00;;;;;16.11;65.39;99697.97;5116385;28;8848;-63
2022/06/20 02:04:33;;;;;;;;;8.75;8.00;;;;;15.93;65.95;99715.19;5116045;28;8835;-62
2022/06/20 02:07:00;;;;;;;;;8.00;6.75;;;;;15.76;65.52;99722.31;5115464;28;8859;-62
2022/06/20 02:09:29;;;;;;;;;7.50;7.00;;;;;15.64;66.55;99744.22;5115798;28;8954;-62
2022/06/20 02:11:56;;;;;;;;;6.00;6.00;;;;;15.54;65.72;99757.75;5114856;28;8828;-62
2022/06/20 02:14:24;;;;;;;;;8.00;7.00;;;;;15.43;66.69;99757.16;5115961;28;8828;-63
2022/06/20 02:16:52;;;;;;;;;7.00;7.00;;;;;15.32;66.99;99744.84;5116372;28;8970;-62
2022/06/20 02:19:20;;;;;;;;;9.50;9.00;;;;;15.23;67.14;99752.94;5116441;28;8982;-62
2022/06/20 02:21:48;;;;;;;;;8.75;7.25;;;;;15.15;67.28;99743.00;5116033;28;8844;-63
2022/06/20 02:24:16;;;;;;;;;5.50;5.00;;;;;15.11;67.17;99733.56;5116135;28;8857;-62
2022/06/20 02:26:43;;;;;;;;;6.25;6.00;;;;;15.10;67.04;99715.78;5117126;28;8836;-63
2022/06/20 02:29:19;;;;;;;;;8.50;7.50;;;;;15.12;66.86;99700.41;5111844;28;8823;-62
2022/06/20 02:31:47;;;;;;;;;9.50;9.25;;;;;15.12;67.20;99691.50;5099348;28;8973;-61
2022/06/20 02:34:15;;;;;;;;;9.50;9.25;;;;;15.15;67.30;99661.69;5099095;28;8838;-62
2022/06/20 02:36:43;;;;;;;;;5.00;3.50;;;;;15.22;66.82;99646.63;5098912;28;8845;-62
2022/06/20 02:39:11;;;;;;;;;10.50;8.00;;;;;15.31;66.63;99637.66;5099481;28;8829;-62
2022/06/20 02:41:39;;;;;;;;;9.50;8.50;;;;;15.37;66.48;99634.34;5099151;28;8853;-62
2022/06/20 02:44:07;;;;;;;;;9.50;8.00;;;;;15.42;66.31;99615.94;5099201;28;8852;-62
2022/06/20 02:46:34;;;;;;;;;10.00;9.25;;;;;15.46;66.31;99599.34;5099087;28;8834;-62
2022/06/20 02:49:02;;;;;;;;;8.50;8.50;;;;;15.49;66.03;99574.03;5099539;28;8944;-61
2022/06/20 02:51:30;;;;;;;;;7.50;7.00;;;;;15.49;66.33;99552.56;5098871;28;8996;-62
2022/06/20 02:53:58;;;;;;;;;6.75;6.00;;;;;15.49;66.33;99526.53;5098684;28;8852;-62
2022/06/20 02:56:26;;;;;;;;;9.00;7.75;;;;;15.50;66.20;99505.94;5098992;28;8830;-62
2022/06/20 02:58:54;;;;;;;;;10.25;10.00;;;;;15.51;66.28;99486.13;5104119;28;8834;-62
2022/06/20 03:01:22;;;;;;;;;7.00;7.00;;;;;15.51;66.36;99449.41;5120127;28;8840;-62
2022/06/20 03:03:49;;;;;;;;;9.00;8.50;;;;;15.52;66.91;99431.44;5120311;28;8820;-63
2022/06/20 03:06:17;;;;;;;;;10.50;10.50;;;;;15.50;66.81;99420.91;5119445;28;8819;-62
2022/06/20 03:08:45;;;;;;;;;9.50;8.50;;;;;15.52;67.23;99405.47;5119136;28;9575;-62
2022/06/20 03:11:13;;;;;;;;;9.75;9.75;;;;;15.57;66.53;99400.44;5118494;28;8875;-62
2022/06/20 03:13:41;;;;;;;;;15.75;11.50;;;;;15.59;66.44;99393.06;5118646;28;8823;-62
2022/06/20 03:16:09;;;;;;;;;13.00;9.50;;;;;15.57;66.66;99389.72;5118015;28;8832;-62
2022/06/20 03:18:37;;;;;;;;;9.00;9.00;;;;;15.54;67.00;99381.16;5118642;28;8828;-62
2022/06/20 03:21:05;;;;;;;;;9.25;8.50;;;;;15.50;67.21;99353.81;5118304;28;8967;-62
2022/06/20 03:23:32;;;;;;;;;8.00;7.00;;;;;15.49;67.05;99335.19;5118577;28;8835;-62
2022/06/20 03:26:00;;;;;;;;;7.00;7.00;;;;;15.47;67.71;99340.72;5118346;28;8970;-62
2022/06/20 03:28:28;;;;;;;;;9.00;9.00;;;;;15.43;67.80;99338.53;5114099;28;8842;-62
2022/06/20 03:31:04;;;;;;;;;7.75;6.75;;;;;15.40;67.85;99346.91;5098456;28;8853;-62
2022/06/20 03:33:31;;;;;;;;;8.75;8.00;;;;;15.36;68.11;99338.38;5098041;28;8818;-62
2022/06/20 03:36:01;;;;;;;;;9.00;7.00;;;;;15.35;68.21;99335.84;5098309;28;8973;-62
2022/06/20 03:38:29;;;;;;;;;9.25;8.50;;;;;15.33;67.77;99332.50;5098681;28;8834;-62
2022/06/20 03:40:56;;;;;;;;;9.50;9.00;;;;;15.30;68.32;99338.13;5098257;28;8826;-63
2022/06/20 03:43:24;;;;;;;;;8.00;7.00;;;;;15.25;68.42;99351.22;5098100;28;9529;-63
2022/06/20 03:45:52;;;;;;;;;13.50;13.00;;;;;15.20;68.44;99343.69;5098162;28;8844;-62
2022/06/20 03:48:20;;;;;;;;;12.00;11.00;;;;;15.15;68.70;99348.69;5098337;28;8834;-62
2022/06/20 03:50:48;;;;;;;;;10.50;9.50;;;;;15.13;69.32;99357.91;5097999;28;8891;-62
2022/06/20 03:53:15;;;;;;;;;12.75;10.50;;;;;15.09;69.00;99360.09;5098195;28;8818;-63
2022/06/20 03:56:05;;;;;;;;;10.00;9.00;;;;;15.07;69.18;99359.41;5098047;28;8842;-62
2022/06/20 03:58:33;;;;;;;;;10.00;10.00;;;;;15.06;69.05;99356.88;5101852;28;8835;-63
2022/06/20 04:01:01;;;;;;;;;15.50;13.25;;;;;15.04;69.02;99378.53;5118519;28;9600;-64
2022/06/20 04:03:28;;;;;;;;;13.00;12.00;;;;;15.05;69.33;99379.34;5119637;28;8827;-64
2022/06/20 04:05:56;;;;;;;;;10.25;8.50;;;;;15.08;68.86;99382.53;5107610;28;8822;-61
2022/06/20 04:08:25;;;;;;;;;10.00;9.00;;;;;15.07;69.02;99382.69;5097259;28;8911;-63
2022/06/20 04:11:01;;;;;;;;;15.50;13.00;;;;;15.04;69.47;99393.78;5097793;28;8830;-63
2022/06/20 04:13:29;;;;;;;;;11.00;9.00;;;;;15.00;69.23;99384.34;5097450;28;8837;-63
2022/06/20 04:15:57;;;;;;;;;10.00;9.50;;;;;15.00;69.44;99387.88;5097504;28;8956;-63
2022/06/20 04:18:31;;;;;;;;;11.00;11.00;;;;;15.01;69.48;99396.78;5097394;28;8834;-63
2022/06/20 04:20:59;;;;;;;;;15.25;15.00;;;;;15.06;69.69;99405.16;5097157;28;8822;-63
2022/06/20 04:23:27;;;;;;;;;14.00;13.00;;;;;15.09;69.45;99423.63;5097018;28;9624;-63
2022/06/20 04:25:55;;;;;;;;;11.75;10.50;;;;;15.09;69.29;99432.50;5097785;28;8926;-62
2022/06/20 04:28:23;;;;;;;;;10.75;10.50;;;;;15.13;69.12;99443.75;5096840;28;8976;-61
2022/06/20 04:30:51;;;;;;;;;7.75;7.75;;;;;15.16;69.23;99451.47;5097537;28;8837;-62
2022/06/20 04:33:19;;;;;;;;;9.00;8.50;;;;;15.16;69.51;99462.22;5096866;28;8837;-63
2022/06/20 04:35:48;;;;;;;;;8.50;8.50;;;;;15.16;68.98;99486.34;5097127;28;8860;-63
2022/06/20 04:38:16;;;;;;;;;10.00;10.00;;;;;15.14;68.94;99499.91;5112118;28;8819;-62
2022/06/20 04:40:43;;;;;;;;;8.25;6.00;;;;;15.15;68.53;99516.81;5116786;28;9779;-62
2022/06/20 04:43:11;;;;;;;;;9.50;9.50;;;;;15.15;68.68;99523.06;5117208;28;8954;-62
2022/06/20 04:45:39;;;;;;;;;8.00;7.50;;;;;15.16;68.61;99518.53;5116935;28;8862;-62
2022/06/20 04:48:07;;;;;;;;;7.50;7.50;;;;;15.17;68.60;99521.03;5116753;28;8832;-62
2022/06/20 04:50:35;;;;;;;;;8.00;7.50;;;;;15.22;69.13;99524.09;5116188;28;8827;-62
2022/06/20 04:53:05;;;;;;;;;8.50;8.50;;;;;15.25;68.90;99533.66;5116403;28;8820;-62
2022/06/20 04:55:33;;;;;;;;;9.00;8.50;;;;;15.24;68.51;99550.75;5116492;28;9505;-62
2022/06/20 04:58:03;;;;;;;;;5.00;4.50;;;;;15.21;68.30;99559.97;5116162;28;8931;-63
2022/06/20 05:00:31;;;;;;;;;3.25;3.00;;;;;15.20;68.77;99571.69;5116000;28;9543;-64
2022/06/20 05:02:58;;;;;;;;;8.50;7.00;;;;;15.20;68.89;99584.25;5116404;28;8943;-63
2022/06/20 05:05:26;;;;;;;;;7.00;7.00;;;;;15.19;68.41;99615.63;5102556;28;8960;-63
2022/06/20 05:07:54;;;;;;;;;6.50;5.00;;;;;15.16;68.97;99637.38;5095391;28;8834;-62
2022/06/20 05:10:22;;;;;;;;;8.00;7.00;;;;;15.06;69.47;99659.94;5094536;28;8850;-64
2022/06/20 05:12:50;;;;;;;;;8.00;7.00;;;;;14.95;69.87;99671.75;5095220;28;8868;-61
2022/06/20 05:15:18;;;;;;;;;7.50;6.75;;;;;14.90;69.88;99675.91;5094491;28;8976;-62
2022/06/20 05:17:45;;;;;;;;;9.50;8.50;;;;;14.87;69.70;99678.91;5094756;28;8826;-63
2022/06/20 05:20:14;;;;;;;;;6.00;4.50;;;;;14.86;69.86;99688.78;5093545;28;9525;-63
2022/06/20 05:22:42;;;;;;;;;8.00;7.00;;;;;14.86;69.49;99687.97;5093715;28;8957;-63
2022/06/20 05:25:09;;;;;;;;;7.00;6.75;;;;;14.87;69.43;99678.91;5094084;28;8887;-62
2022/06/20 05:27:37;;;;;;;;;8.50;7.00;;;;;14.87;69.25;99665.50;5093192;28;8852;-62
2022/06/20 05:30:06;;;;;;;;;6.50;5.25;;;;;14.88;69.25;99659.97;5093311;28;8976;-62
2022/06/20 05:32:34;;;;;;;;;7.50;7.50;;;;;14.90;69.37;99668.72;5092576;28;8889;-62
2022/06/20 05:35:02;;;;;;;;;10.50;8.50;;;;;14.93;68.87;99656.81;5091910;28;8847;-62
2022/06/20 05:37:31;;;;;;;;;10.00;8.50;;;;;14.94;68.99;99650.50;5093238;28;8940;-62
2022/06/20 05:39:58;;;;;;;;;6.50;6.00;;;;;14.96;68.96;99646.63;5092991;28;9523;-62
2022/06/20 05:42:26;;;;;;;;;6.00;5.00;;;;;15.00;68.57;99637.28;5093202;28;8952;-62
2022/06/20 05:44:54;;;;;;;;;10.50;7.00;;;;;15.01;68.58;99647.00;5092803;28;8846;-62
2022/06/20 05:47:22;;;;;;;;;8.00;7.50;;;;;15.05;68.75;99634.13;5093602;28;8842;-62
2022/06/20 05:49:50;;;;;;;;;4.00;3.75;;;;;15.11;68.29;99639.69;5093816;28;8861;-63
2022/06/20 05:52:18;;;;;;;;;4.50;4.50;;;;;15.14;68.34;99643.91;5094102;28;8850;-61
2022/06/20 05:54:46;;;;;;;;;6.00;6.00;;;;;15.15;68.55;99646.44;5093804;28;9549;-61
2022/06/20 05:57:14;;;;;;;;;8.50;8.50;;;;;15.17;68.77;99652.47;5093701;28;9149;-63
2022/06/20 05:59:43;;;;;;;;;5.00;4.50;;;;;15.19;68.87;99645.13;5094243;28;8846;-62
2022/06/20 06:02:10;;;;;;;;;4.00;3.00;;;;;15.21;69.04;99642.28;5095791;28;8849;-62
2022/06/20 06:04:38;;;;;;;;;7.00;5.25;;;;;15.21;68.26;99645.81;5096249;28;8822;-62
2022/06/20 06:07:06;;;;;;;;;6.75;6.00;;;;;15.25;68.76;99659.75;5095526;28;8849;-62
2022/06/20 06:09:34;;;;;;;;;10.50;9.75;;;;;15.25;68.68;99646.34;5095038;28;8868;-62
2022/06/20 06:12:02;;;;;;;;;6.00;6.00;;;;;15.27;69.37;99642.50;5097059;28;8866;-62
2022/06/20 06:14:29;;;;;;;;;7.00;6.75;;;;;15.33;68.98;99627.63;5096007;28;8837;-62
2022/06/20 06:16:57;;;;;;;;;10.50;9.50;;;;;15.37;68.83;99623.63;5093109;28;8872;-63
2022/06/20 06:19:25;;;;;;;;;7.00;7.00;;;;;15.40;68.60;99623.31;5095048;28;8830;-62
2022/06/20 06:21:53;;;;;;;;;10.00;9.25;;;;;15.41;68.71;99615.06;5096846;28;8962;-62
2022/06/20 06:24:21;;;;;;;;;8.50;7.00;;;;;15.42;68.63;99616.78;5097475;28;8860;-63
2022/06/20 06:26:49;;;;;;;;;4.00;4.00;;;;;15.44;68.99;99617.47;5098939;28;8988;-62
2022/06/20 06:29:16;;;;;;;;;7.00;7.00;;;;;15.48;68.50;99615.28;5097628;28;8856;-62
2022/06/20 06:31:46;;;;;;;;;7.50;6.50;;;;;15.52;69.07;99633.59;5097960;28;8841;-62
2022/06/20 06:34:14;;;;;;;;;6.00;6.00;;;;;15.53;68.97;99640.66;5097056;28;8886;-62
2022/06/20 06:36:47;;;;;;;;;9.00;9.00;;;;;15.53;69.10;99632.59;5097876;28;8826;-62
2022/06/20 06:39:15;;;;;;;;;6.00;4.00;;;;;15.51;69.00;99628.38;5099113;28;8838;-62
2022/06/20 06:41:42;;;;;;;;;10.50;7.00;;;;;15.49;69.16;99631.22;5098453;28;8943;-62
2022/06/20 06:44:10;;;;;;;;;4.00;4.00;;;;;15.48;69.19;99632.22;5097512;28;8849;-64
2022/06/20 06:46:38;;;;;;;;;6.00;6.00;;;;;15.46;68.88;99628.03;5096968;28;8849;-63
2022/06/20 06:49:06;;;;;;;;;6.50;6.00;;;;;15.47;68.89;99621.66;5096989;28;8830;-63
2022/06/20 06:51:34;;;;;;;;;6.50;6.50;;;;;15.49;69.15;99630.41;5095951;28;9531;-63
2022/06/20 06:54:02;;;;;;;;;10.00;10.00;;;;;15.48;69.18;99629.53;5097336;28;9243;-63
2022/06/20 06:56:30;;;;;;;;;7.00;7.00;;;;;15.47;69.74;99635.09;5098359;28;8814;-63
2022/06/20 06:58:57;;;;;;;;;5.50;3.75;;;;;15.45;68.87;99634.38;5098764;28;8852;-63
2022/06/20 07:01:25;;;;;;;;;3.75;3.50;;;;;15.42;68.95;99629.34;5098555;28;9479;-62
2022/06/20 07:03:55;;;;;;;;;9.25;9.00;;;;;15.41;69.05;99644.59;5096987;28;8975;-63
2022/06/20 07:06:23;;;;;;;;;8.50;8.00;;;;;15.39;68.95;99659.19;5096648;28;8877;-63
2022/06/20 07:08:57;;;;;;;;;12.25;12.25;;;;;15.41;68.98;99673.28;5097381;28;8845;-62
2022/06/20 07:11:25;;;;;;;;;15.00;12.00;;;;;15.41;69.41;99674.13;5097410;28;8838;-62
2022/06/20 07:13:53;;;;;;;;;9.50;8.00;;;;;15.41;69.41;99673.28;5097282;28;8886;-62
2022/06/20 07:16:21;;;;;;;;;11.00;10.00;;;;;15.40;69.04;99669.75;5096273;28;8838;-64
2022/06/20 07:18:49;;;;;;;;;9.50;8.00;;;;;15.38;69.02;99674.44;5095831;28;8822;-62
2022/06/20 07:21:17;;;;;;;;;9.75;7.00;;;;;15.38;68.90;99681.63;5095619;28;8856;-62
2022/06/20 07:23:45;;;;;;;;;9.75;8.50;;;;;15.36;69.09;99678.28;5095474;28;8850;-62
2022/06/20 07:26:13;;;;;;;;;14.25;12.00;;;;;15.35;69.22;99681.97;5095844;28;8838;-62
2022/06/20 07:28:41;;;;;;;;;15.50;11.75;;;;;15.32;69.09;99685.81;5095325;28;8860;-62
2022/06/20 07:31:09;;;;;;;;;11.50;10.50;;;;;15.33;69.04;99686.66;5095621;28;8952;-62
2022/06/20 07:33:36;;;;;;;;;10.00;9.00;;;;;15.32;68.74;99687.66;5094356;28;8845;-62
2022/06/20 07:36:04;;;;;;;;;13.00;11.00;;;;;15.34;69.05;99685.66;5094590;28;9200;-62
2022/06/20 07:38:32;;;;;;;;;8.75;7.50;;;;;15.36;68.90;99692.56;5094036;28;8837;-61
2022/06/20 07:41:02;;;;;;;;;10.00;9.25;;;;;15.46;68.51;99697.81;5094155;28;8846;-62
2022/06/20 07:43:30;;;;;;;;;9.25;9.00;;;;;15.55;68.66;99692.31;5095393;28;8846;-62
2022/06/20 07:46:01;;;;;;;;;10.00;9.50;;;;;15.72;68.18;99688.75;5095546;28;8846;-61
2022/06/20 07:48:29;;;;;;;;;11.00;9.50;;;;;15.96;67.25;99687.97;5095330;28;8839;-63
2022/06/20 07:50:57;;;;;;;;;14.25;11.00;;;;;16.09;67.24;99680.31;5094458;28;8969;-62
2022/06/20 07:53:24;;;;;;;;;11.50;10.00;;;;;16.21;66.93;99679.84;5093558;28;8985;-62
2022/06/20 07:55:52;;;;;;;;;14.25;10.00;;;;;16.29;67.03;99677.16;5093461;28;8960;-62
2022/06/20 07:58:21;;;;;;;;;12.00;10.00;;;;;16.41;66.42;99676.72;5094863;28;9503;-62
2022/06/20 08:00:49;;;;;;;;;13.50;12.25;;;;;16.51;66.42;99674.75;5092605;28;8972;-62
2022/06/20 08:03:17;;;;;;;;;16.50;13.00;;;;;16.65;66.26;99674.06;5090555;28;8845;-62
2022/06/20 08:05:45;;;;;;;;;12.50;10.00;;;;;16.79;66.33;99669.88;5091141;28;8854;-62
2022/06/20 08:08:12;;;;;;;;;9.50;9.50;;;;;16.92;65.74;99671.03;5091153;28;9867;-62
2022/06/20 08:10:40;;;;;;;;;10.50;9.00;;;;;17.02;65.27;99671.72;5089347;28;8826;-62
2022/06/20 08:13:08;;;;;;;;;7.50;6.75;;;;;17.07;65.12;99674.75;5091073;28;8842;-62
2022/06/20 08:15:36;;;;;;;;;12.25;10.00;;;;;17.14;65.18;99678.44;5091691;28;8840;-62
2022/06/20 08:18:04;;;;;;;;;8.00;7.00;;;;;17.18;65.17;99687.88;5089705;28;8846;-62
2022/06/20 08:20:33;;;;;;;;;5.50;4.50;;;;;17.21;64.69;99687.50;5090927;28;8935;-62
2022/06/20 08:23:01;;;;;;;;;8.75;7.00;;;;;17.26;65.23;99689.69;5092108;28;9339;-62
2022/06/20 08:25:28;;;;;;;;;6.25;5.50;;;;;17.26;65.33;99682.47;5092904;28;8846;-62
2022/06/20 08:27:56;;;;;;;;;6.00;4.00;;;;;17.24;64.92;99680.94;5093440;28;8979;-62
2022/06/20 08:30:24;;;;;;;;;7.80;6.40;;;;;17.27;65.04;99686.84;5094031;28;9004;-63
2022/06/20 08:32:52;;;;;;;;;6.25;6.00;;;;;17.44;64.63;99682.28;5093580;28;8826;-62
2022/06/20 08:35:20;;;;;;;;;8.50;7.50;;;;;17.68;64.21;99683.06;5092770;28;9269;-62
2022/06/20 08:37:48;;;;;;;;;4.60;3.80;;;;;17.92;64.19;99691.03;5092339;28;8834;-62
2022/06/20 08:40:16;;;;;;;;;4.00;3.00;;;;;18.05;63.75;99693.16;5093476;28;8918;-62
2022/06/20 08:42:44;;;;;;;;;4.00;3.40;;;;;17.98;64.00;99701.13;5094202;28;8864;-65
2022/06/20 08:45:11;;;;;;;;;4.80;4.80;;;;;18.05;64.05;99709.34;5094245;28;8867;-62
2022/06/20 08:47:39;;;;;;;;;6.00;6.00;;;;;18.18;63.08;99712.31;5093751;28;8930;-63
2022/06/20 08:50:13;;;;;;;;;4.00;3.40;;;;;18.36;62.95;99715.66;5094237;28;8861;-63
2022/06/20 08:53:00;;;;;;;;;7.00;6.00;;;;;18.39;63.02;99723.38;5091952;28;8850;-63
2022/06/20 08:55:28;;;;;;;;;3.80;3.80;;;;;18.29;63.61;99728.13;5091478;28;8975;-63
2022/06/20 08:57:56;;;;;;;;;5.20;4.60;;;;;18.30;63.26;99727.16;5091284;28;8954;-63
2022/06/20 09:00:36;;;;;;;;;4.00;4.00;;;;;18.38;63.39;99721.72;5091316;28;8916;-63
2022/06/20 09:03:04;;;;;;;;;3.40;3.40;;;;;18.43;62.95;99730.13;5090207;28;8844;-63
2022/06/20 09:05:32;;;;;;;;;7.80;6.60;;;;;18.47;62.82;99734.13;5091364;28;9666;-63
2022/06/20 09:07:59;;;;;;;;;7.40;6.60;;;;;18.55;62.77;99729.53;5090484;28;8942;-63
2022/06/20 09:10:28;;;;;;;;;9.00;7.00;;;;;18.78;62.44;99729.53;5091487;28;8830;-63
2022/06/20 09:12:55;;;;;;;;;7.40;6.20;;;;;18.93;61.93;99739.38;5090831;28;8892;-63
2022/06/20 09:15:23;;;;;;;;;7.60;7.00;;;;;19.01;61.60;99731.22;5091167;28;8935;-63
2022/06/20 09:17:51;;;;;;;;;9.40;9.40;;;;;19.11;61.55;99736.41;5090192;28;8825;-63
2022/06/20 09:20:19;;;;;;;;;10.40;9.60;;;;;19.26;61.47;99730.03;5091797;28;8840;-64
2022/06/20 09:22:47;;;;;;;;;9.80;8.60;;;;;19.22;61.52;99722.47;5091349;28;9535;-63
2022/06/20 09:25:15;;;;;;;;;5.80;5.80;;;;;19.07;62.02;99733.22;5090941;28;8996;-63
2022/06/20 09:27:43;;;;;;;;;7.00;7.00;;;;;18.98;62.19;99739.66;5091030;28;8825;-63
2022/06/20 09:30:11;;;;;;;;;8.60;8.40;;;;;18.92;61.98;99743.13;5090325;28;8842;-63
2022/06/20 09:32:45;;;;;;;;;9.40;7.20;;;;;19.01;61.74;99739.34;5090611;28;8918;-63
2022/06/20 09:35:13;;;;;;;;;10.20;8.80;;;;;19.19;61.44;99733.63;5091752;28;8856;-63
2022/06/20 09:37:41;;;;;;;;;7.40;7.40;;;;;19.32;61.63;99736.56;5095104;28;8833;-63
2022/06/20 09:40:09;;;;;;;;;11.80;10.20;;;;;19.45;60.59;99744.88;5094828;28;8842;-63
2022/06/20 09:42:37;;;;;;;;;8.60;8.00;;;;;19.59;60.71;99750.34;5096348;28;8886;-63
2022/06/20 09:45:04;;;;;;;;;10.00;9.00;;;;;19.63;60.25;99746.22;5097179;28;8846;-63
2022/06/20 09:47:32;;;;;;;;;7.00;7.00;;;;;19.65;60.76;99741.47;5096190;28;8849;-63
2022/06/20 09:50:00;;;;;;;;;7.40;7.40;;;;;19.68;60.43;99749.22;5097832;28;8830;-63
2022/06/20 09:52:28;;;;;;;;;6.60;5.40;;;;;19.68;60.51;99745.66;5096996;28;8830;-63
2022/06/20 09:54:56;;;;;;;;;5.20;5.20;;;;;19.71;60.69;99745.31;5095898;28;8861;-63
2022/06/20 09:57:27;;;;;;;;;5.00;5.00;;;;;19.94;60.39;99752.31;5094996;28;8826;-63
2022/06/20 09:59:56;;;;;;;;;8.40;8.00;;;;;20.28;59.04;99754.47;5094207;28;8879;-63
2022/06/20 10:02:24;;;;;;;;;5.80;5.40;;;;;20.59;58.46;99750.50;5095512;28;8830;-63
2022/06/20 10:04:52;;;;;;;;;5.80;4.40;;;;;20.77;58.17;99740.94;5094122;28;8985;-63
2022/06/20 10:07:30;;;;;;;;;7.20;7.20;;;;;20.87;58.13;99743.38;5093671;28;8940;-63
2022/06/20 10:10:05;;;;;;;;;5.00;4.40;;;;;20.88;58.12;99742.34;5091994;28;9488;-63
2022/06/20 10:12:33;;;;;;;;;4.80;4.80;;;;;20.87;57.85;99751.50;5092624;28;9220;-63
2022/06/20 10:15:01;;;;;;;;;6.40;6.40;;;;;20.66;58.34;99751.44;5093199;28;9207;-63
2022/06/20 10:17:29;;;;;;;;;4.00;3.60;;;;;20.31;59.51;99762.22;5092974;28;8972;-63
2022/06/20 10:19:57;;;;;;;;;5.00;4.20;;;;;20.01;60.09;99769.47;5093806;28;8826;-63
2022/06/20 10:22:25;;;;;;;;;4.80;4.80;;;;;19.76;60.19;99754.53;5094538;28;8935;-63
2022/06/20 10:24:54;;;;;;;;;3.20;3.20;;;;;19.62;60.88;99768.00;5095199;28;8853;-63
2022/06/20 10:27:41;;;;;;;;;6.60;5.00;;;;;19.82;60.42;99770.03;5095901;28;8849;-63
2022/06/20 10:30:09;;;;;;;;;4.20;4.20;;;;;20.60;58.65;99765.72;5095487;28;8840;-63
2022/06/20 10:32:37;;;;;;;;;5.00;4.00;;;;;21.10;57.29;99762.97;5095752;28;8887;-63
2022/06/20 10:35:04;;;;;;;;;5.00;5.00;;;;;21.21;57.28;99774.16;5095665;28;8861;-63
2022/06/20 10:37:33;;;;;;;;;4.80;4.00;;;;;21.05;57.84;99770.84;5096042;28;9616;-63
2022/06/20 10:40:02;;;;;;;;;2.00;2.00;;;;;20.83;58.04;99785.34;5095951;28;8968;-63
2022/06/20 10:42:31;;;;;;;;;3.60;2.00;;;;;20.65;58.61;99784.94;5094785;28;8959;-64
2022/06/20 10:44:58;;;;;;;;;3.60;3.20;;;;;20.66;58.56;99786.63;5093579;28;8842;-63
2022/06/20 10:47:26;;;;;;;;;5.00;5.00;;;;;21.36;56.71;99774.91;5092302;28;8846;-63
2022/06/20 10:49:56;;;;;;;;;4.40;4.40;;;;;22.27;55.06;99770.19;5093930;28;8919;-63
2022/06/20 10:52:24;;;;;;;;;2.00;1.80;;;;;23.37;53.04;99772.47;5093377;28;8880;-63
2022/06/20 10:54:52;;;;;;;;;2.00;2.00;;;;;24.30;51.55;99772.19;5092670;28;8862;-63
2022/06/20 10:57:20;;;;;;;;;4.20;4.20;;;;;25.13;50.09;99756.56;5093571;28;8842;-63
2022/06/20 10:59:48;;;;;;;;;4.00;4.00;;;;;25.43;49.65;99770.41;5094117;28;8842;-63
2022/06/20 11:02:16;;;;;;;;;3.60;3.00;;;;;25.24;50.25;99774.13;5093232;28;8884;-63
2022/06/20 11:04:44;;;;;;;;;5.00;5.00;;;;;25.05;50.28;99765.00;5091796;28;8834;-63
2022/06/20 11:07:12;;;;;;;;;3.80;3.80;;;;;24.40;51.81;99786.19;5091025;28;8918;-63
2022/06/20 11:09:40;;;;;;;;;3.60;3.40;;;;;23.78;52.85;99786.72;5091896;28;8949;-64
2022/06/20 11:12:15;;;;;;;;;2.20;2.20;;;;;23.71;53.04;99788.59;5092258;28;8842;-63
2022/06/20 11:14:43;;;;;;;;;2.80;2.80;;;;;24.42;51.05;99789.56;5093527;28;8845;-63
2022/06/20 11:17:11;;;;;;;;;5.00;5.00;;;;;25.26;49.73;99786.47;5090198;28;8977;-63
2022/06/20 11:19:39;;;;;;;;;4.60;4.60;;;;;26.07;48.09;99785.41;5089220;28;8855;-64
2022/06/20 11:22:07;;;;;;;;;2.60;2.60;;;;;26.70;47.01;99781.41;5088168;28;8856;-64
2022/06/20 11:24:37;;;;;;;;;2.00;2.00;;;;;26.98;46.58;99774.28;5089164;28;8837;-63
2022/06/20 11:27:05;;;;;;;;;3.40;3.40;;;;;27.22;45.97;99765.13;5087952;28;8854;-63
2022/06/20 11:29:33;;;;;;;;;4.80;3.00;;;;;26.58;46.46;99778.56;5088627;28;8850;-64
2022/06/20 11:32:01;;;;;;;;;3.20;3.20;;;;;25.75;48.66;99783.81;5089799;28;8851;-64
2022/06/20 11:34:29;;;;;;;;;5.40;5.20;;;;;25.79;48.24;99777.66;5089386;28;8837;-63
2022/06/20 11:36:57;;;;;;;;;4.80;3.40;;;;;26.22;47.01;99777.69;5089620;28;8856;-64
2022/06/20 11:39:25;;;;;;;;;4.00;4.00;;;;;26.09;47.58;99775.09;5089979;28;8845;-64
2022/06/20 11:41:53;;;;;;;;;4.00;4.00;;;;;26.15;46.93;99779.66;5090674;28;8955;-64
2022/06/20 11:44:20;;;;;;;;;5.60;5.40;;;;;25.71;47.66;99775.22;5090786;28;8837;-64